En poursuivant votre navigation sur ce site, vous acceptez l'utilisation de cookies pour vous proposer des contenus et services adaptés. Mentions légales.
  

03/12/2019 Mise en ligne de la synthèse climatologique de Novembre : CLIQUEZ ICI
02/12/2019  Mise à jour des tableaux d'analyses décadaires, mensuelles et annuelles : rubrique climatologie   

NOAA COMPLET DU MOIS

Si l'entête du tableau ne s'affiche pas correctement, => actualisez la page (F5 avec Internet Explorer, Chrome...).
Utilisez l'ascenseur sur la droite des lignes du tableau pour faire défiler verticalement les jours du mois.

TABLEAU DES DONNEES COMPLETES NOAA de JUILLET 2019

DATE TEMPERATURE
sous abri
TEMPARATURE 
au sol
VENT  et  Indice de Refroidissement Eolien  PRECIPITATIONS (en mm/m2)
et Intensité
PRESSION ATMOSPHERIQUE (en hPa) HUMIDITE de l'AIR RADIATIONS SOLAIRES (en W/m2)
Mini Moy. Maxi Mini Moy. Maxi Moyen Rafale I.R.E.
Minii
Précip. jour Cumul mois Intensité Maxi Mini Moy. Maxi Mini Moy. Maxi Pic maxi du jour Total jour
01/07/19 19.8° 27.1° 33.9° 17.8° 27.3° 37.8° 5.8km/h dir SE 51.5km/h dir ESE 19.1° 0.8 0.8 1012.6 1015.2 1016.6 49% 63.2% 81% 886 79 351
02/07/19 18.2° 23.7° 29.1° 17.2° 24.1° 32.2° 7.1km/h dir ONO 25.7km/h dir O 18.2° 0 0.8 1014.2 1016.4 1017.8 50% 66.1% 82% 895 86 435
03/07/19 18.3° 23.7° 29.8° 17.8° 24.3° 32.2° 6.8km/h dir ONO 25.7km/h dir NNE 18.3° 0 0.8 1013.5 1015.3 1016.7 50% 62% 74% 970 84 421
04/07/19 16.2° 23.9° 31.2° 14.4° 24.1° 34.4° 3.5km/h dir ONO 17.7km/h dir NNE 16.2° 0 0.8 1015.2 1016.5 1018 43% 61.5% 83% 867 88 922
05/07/19 16.1° 25.5° 34.1° 14.4° 25.6° 37.2° 2.1km/h dir NNE 16.1km/h dir O 16.1° 0 0.8 1011.7 1015 1017.1 35% 65.1% 95% 877 90 707
06/07/19 19° 24.1° 30.5° 17.8° 23.8° 32.8° 4km/h dir SSO 54.7km/h dir SO 17.6° 6.2 7 39mm/h 1008.9 1011.2 1014.7 53% 72.8% 94% 1060 61 956
07/07/19 18.2° 24.6° 31.3° 17.2° 25° 34.4° 4.5km/h dir NNE 20.9km/h dir N 18.2° 2.4 9.4 31mm/h 1010.1 1011.3 1012.7 41% 71.5% 94% 874 89 700
08/07/19 15.8° 23° 30.2° 14.4° 23.7° 33.3° 5.5km/h dir ONO 25.7km/h dir N 15.8° 0 9.4 1011.3 1012.7 1014.1 45% 70.5% 93% 895 88 049
09/07/19 14.5° 20.9° 26.6° 13.9° 21.6° 30° 11.1km/h dir ONO 32.2km/h dir N 13.9° 0 9.4 1011.8 1013.2 1014.4 38% 59.6% 79% 944 88 938
10/07/19 13.2° 20.3° 26.9° 12.2° 20.4° 30° 9km/h dir ONO 32.2km/h dir N 13.1° 0 9.4 1013.7 1014.9 1015.8 34% 53.1% 73% 882 91 450
11/07/19 11.8° 19.1° 26.8° 10° 18.8° 30° 1.4km/h dir NE 11.3km/h dir N 11.8° 0 9.4 1012.9 1013.8 1014.7 37% 65.5% 89% 793 48 862
12/07/19 14.7° 22.4° 30.2° 12.8° 22.4° 34.4° 3.9km/h dir O 22.5km/h dir SO 14.7° 0 9.4 1012.8 1013.6 1014.7 36% 62.5% 88% 1078 78 844
13/07/19 16° 21.5° 26.7° 14.4° 21.9° 30.6° 8.4km/h dir NNE 30.6km/h dir ONO 16° 0 9.4 1014.7 1015.5 1016.7 40% 62.8% 87% 905 90 198
14/07/19 13.2° 20.1° 27.1° 11.1° 20.6° 30.6° 10.5km/h dir ONO 37km/h dir N 13.3° 0 9.4 1010.8 1013 1015 43% 65.4% 88% 949 89 481
15/07/19 14.2° 19.9° 26.1° 13.3° 20.5° 28.9° 15km/h dir ONO 45.1km/h dir ONO 13.1° 0 9.4 1012.2 1012.8 1014.7 45% 67% 88% 879 87 879
16/07/19 12.6° 21.4° 29.6° 10.6° 21.5° 32.8° 5.1km/h dir ONO 22.5km/h dir N 12.6° 0 9.4 1013.3 1014.8 1016.3 30% 59.8% 88% 889 88 034
17/07/19 11.9° 21.6° 30.6° 10° 21.8° 33.9° 2.9km/h dir NNE 20.9km/h dir O 11.9° 0 9.4 1010.5 1012.7 1014.3 31% 59.2% 91% 898 88 028
18/07/19 13.8° 22° 28.7° 11.7° 21.9° 32.8° 4.2km/h dir O 22.5km/h dir O 13.8° 0 9.4 1011.3 1012.5 1014.7 39% 59.1% 86% 846 74 938
19/07/19 13.7° 22.3° 30.4° 12.2° 22.7° 34.4° 2.6km/h dir NE 17.7km/h dir S 13.7° 0 9.4 1012.3 1014.7 1016.7 38% 63.2% 87% 886 86 146
20/07/19 17.9° 25.8° 32.2° 15.6° 25.8° 36.1° 9.3km/h dir SSE 40.2km/h dir S 17.9° 1 10.4 6.2mm/h 1011.9 1013.6 1017.3 32% 52.9% 81% 1004 70 453
21/07/19 20.1° 25.7° 32.8° 19.4° 26.4° 36.7° 3.1km/h dir NNE 16.1km/h dir NNE 20.1° 0.2 10.6 1016.9 1019.2 1020.6 41% 68.7% 93% 937 81 939
22/07/19 18.4° 26.3° 34.6° 16.7° 26.8° 38.3° 4.3km/h dir O 20.9km/h dir NNE 18.4° 0 10.6 1018.1 1020.1 1021.8 39% 61.1% 83% 886 82 979
23/07/19 17.8° 27.7° 37.8° 16.7° 27.7° 41.1° 1.9km/h dir SSO 16.1km/h dir S 17.9° 0 10.6 1013.2 1016.2 1018.2 30% 61.9% 92% 867 83 538
24/07/19 23° 30.7° 39.4° 20.6° 30.4° 42.8° 4km/h dir SE 22.5km/h dir SSE 23° 0 10.6 1010.9 1013.1 1014.8 27% 51.9% 73% 828 80 394
25/07/19 22.3° 30.7° 38.4° 19.4° 30.6° 42.2° 6.8km/h dir SSE 35.4km/h dir E 22.3° 0 10.6 1008.9 1011.4 1012.9 28% 50.6% 77% 830 80 702
26/07/19 19.4° 29.1° 36.6° 18.9° 29.7° 40.6° 6.8km/h dir SE 45.1km/h dir O 19.5° 6.4 17 26.4mm/h 1003.4 1008.3 1011.2 24% 48.3% 90% 849 80 816
27/07/19 17.3° 20.6° 26.7° 17.2° 21.2° 30° 4.2km/h dir O 25.7km/h dir ONO 17.3° 28.4 45.4 61.6mm/h 999.8 1003.7 1008 61% 86.6% 96% 928 44 477
28/07/19 15.2° 18.2° 22.2° 13.3° 18.2° 25.6° 6.6km/h dir O 25.7km/h dir O 15.3° 21 66.4 15.4mm/h 1002 1006.4 1010.5 62% 84.6% 96% 930 33 365
29/07/19 12.3° 20.1° 27.9° 11.1° 20.3° 31.7° 3.9km/h dir NNE 25.7km/h dir ONO 12.3° 0 66.4 1008.9 1010 1011.1 49% 75.7% 96% 1028 74 339
30/07/19 14.8° 19.6° 24.1° 13.3° 19.6° 28.9° 4.7km/h dir O 27.4km/h dir O 14.8° 0 66.4 1011.1 1014.3 1017.1 59% 77% 96% 1129 55 305
31/07/19 14.8° 19.4° 24.9° 12.8° 19.6° 28.3° 4.5km/h dir O 22.5km/h dir NNE 14.9° 0 66.4 1017 1018.2 1019.9 43% 68.8% 92% 1130 72 588

RETOUR ACCUEIL


Date de création : 01/08/2019 : 21:53
Catégorie : ANNEE 2019 - MOIS PASSES - JUILLET 2019
Page lue 173 fois


Réactions à cet article


Personne n'a encore laissé de commentaire.
Soyez donc le premier !